To NAV CANADA Home Page Login to a new session Search on AWWS site Feedback and Comments Disclaimer Vers la page française équivalente Tips FAQ What's new on the site To the Forecasts and Observations / NOTAM section To "File a Flight Plan" website Publications and other links Update of the User's profile FIC Telephone Numbers My Weather Data Folder Route Weather Data Regional Weather Data Local Weather Data To the Forecasts and Observations / NOTAM section
Request Generated 12/04/2016 at 22:20:28 UTC . Weather information available at that time is displayed.

METAR/TAF

SWIFT CURRENT/SK    (show WxCam)

METAR CYYN 042200Z AUTO 01005KT 9SM BKN160 M07/M08 A2950 RMK SLP036=
METAR CYYN 042100Z AUTO 03004KT 9SM BKN170 M06/M07 A2951 RMK SLP035=
METAR CYYN 042000Z AUTO 27002KT 9SM BKN100 BKN120 M04/M07 A2951 RMK
SLP035=

TAF CYYN 041738Z 0418/0506 24010KT P6SM SCT160
BECMG 0418/0420 10005KT
FM042200 06008KT P6SM SCT040 BKN140
BECMG 0422/0424 1SM -SN SCT008 OVC040
FM050000 04010KT 1SM -SN VV008 TEMPO 0500/0506 4SM -SN SCT008
OVC025
BECMG 0500/0502 35020G30KT
RMK FCST BASED ON AUTO OBS. NXT FCST BY 050000Z=
Your time UTC time
Weather data provided by Environment Canada and NAV CANADA